sensor_id;sensor_type;location;lat;lon;timestamp;P1;durP1;ratioP1;P2;durP2;ratioP2
56381;SDS011;50261;51.150;4.470;2023-11-21T00:01:36;27.23;;;16.60;;
56381;SDS011;50261;51.150;4.470;2023-11-21T00:04:02;32.42;;;15.98;;
56381;SDS011;50261;51.150;4.470;2023-11-21T00:06:28;26.60;;;17.75;;
56381;SDS011;50261;51.150;4.470;2023-11-21T00:08:55;28.13;;;17.38;;
56381;SDS011;50261;51.150;4.470;2023-11-21T00:11:21;27.90;;;16.83;;
56381;SDS011;50261;51.150;4.470;2023-11-21T00:13:46;30.95;;;17.33;;
56381;SDS011;50261;51.150;4.470;2023-11-21T00:16:13;30.00;;;17.23;;
56381;SDS011;50261;51.150;4.470;2023-11-21T00:18:38;28.13;;;17.85;;
56381;SDS011;50261;51.150;4.470;2023-11-21T00:21:04;27.30;;;17.42;;
56381;SDS011;50261;51.150;4.470;2023-11-21T00:23:30;25.73;;;15.45;;
56381;SDS011;50261;51.150;4.470;2023-11-21T00:25:56;30.27;;;17.65;;
56381;SDS011;50261;51.150;4.470;2023-11-21T00:28:22;30.08;;;17.60;;
56381;SDS011;50261;51.150;4.470;2023-11-21T00:30:48;27.85;;;16.50;;
56381;SDS011;50261;51.150;4.470;2023-11-21T00:33:13;32.03;;;18.08;;
56381;SDS011;50261;51.150;4.470;2023-11-21T00:35:39;27.90;;;17.45;;
56381;SDS011;50261;51.150;4.470;2023-11-21T00:38:04;29.70;;;17.73;;
56381;SDS011;50261;51.150;4.470;2023-11-21T00:40:31;29.42;;;19.02;;
56381;SDS011;50261;51.150;4.470;2023-11-21T00:42:58;27.42;;;17.35;;
56381;SDS011;50261;51.150;4.470;2023-11-21T00:45:23;32.53;;;18.13;;
56381;SDS011;50261;51.150;4.470;2023-11-21T00:47:50;29.65;;;17.35;;
56381;SDS011;50261;51.150;4.470;2023-11-21T00:50:15;33.78;;;17.40;;
56381;SDS011;50261;51.150;4.470;2023-11-21T00:52:41;30.13;;;18.73;;
56381;SDS011;50261;51.150;4.470;2023-11-21T00:55:06;29.35;;;18.52;;
56381;SDS011;50261;51.150;4.470;2023-11-21T00:57:33;28.55;;;18.20;;
56381;SDS011;50261;51.150;4.470;2023-11-21T00:59:59;29.98;;;18.00;;
56381;SDS011;50261;51.150;4.470;2023-11-21T01:02:26;36.42;;;18.65;;
56381;SDS011;50261;51.150;4.470;2023-11-21T01:04:52;31.45;;;18.15;;
56381;SDS011;50261;51.150;4.470;2023-11-21T01:07:18;28.13;;;17.80;;
56381;SDS011;50261;51.150;4.470;2023-11-21T01:09:46;29.13;;;17.77;;
56381;SDS011;50261;51.150;4.470;2023-11-21T01:12:11;31.63;;;17.88;;
56381;SDS011;50261;51.150;4.470;2023-11-21T01:14:37;33.85;;;18.65;;
56381;SDS011;50261;51.150;4.470;2023-11-21T01:17:03;26.67;;;17.92;;
56381;SDS011;50261;51.150;4.470;2023-11-21T01:19:30;26.83;;;17.92;;
56381;SDS011;50261;51.150;4.470;2023-11-21T01:21:56;33.67;;;18.52;;
56381;SDS011;50261;51.150;4.470;2023-11-21T01:24:23;33.50;;;18.13;;
56381;SDS011;50261;51.150;4.470;2023-11-21T01:26:49;32.25;;;18.15;;
56381;SDS011;50261;51.150;4.470;2023-11-21T01:29:14;29.52;;;18.17;;
56381;SDS011;50261;51.150;4.470;2023-11-21T01:31:40;30.58;;;18.42;;
56381;SDS011;50261;51.150;4.470;2023-11-21T01:34:06;31.30;;;19.13;;
56381;SDS011;50261;51.150;4.470;2023-11-21T01:36:32;31.00;;;19.20;;
56381;SDS011;50261;51.150;4.470;2023-11-21T01:38:58;28.58;;;18.50;;
56381;SDS011;50261;51.150;4.470;2023-11-21T01:41:27;29.60;;;18.25;;
56381;SDS011;50261;51.150;4.470;2023-11-21T01:43:54;30.88;;;17.55;;
56381;SDS011;50261;51.150;4.470;2023-11-21T01:46:20;30.08;;;18.05;;
56381;SDS011;50261;51.150;4.470;2023-11-21T01:48:47;33.83;;;18.77;;
56381;SDS011;50261;51.150;4.470;2023-11-21T01:51:14;35.00;;;19.15;;
56381;SDS011;50261;51.150;4.470;2023-11-21T01:53:40;28.15;;;17.70;;
56381;SDS011;50261;51.150;4.470;2023-11-21T01:56:06;32.60;;;18.67;;
56381;SDS011;50261;51.150;4.470;2023-11-21T01:58:33;30.23;;;18.48;;
56381;SDS011;50261;51.150;4.470;2023-11-21T02:00:59;31.25;;;19.80;;
56381;SDS011;50261;51.150;4.470;2023-11-21T02:03:25;27.15;;;18.08;;
56381;SDS011;50261;51.150;4.470;2023-11-21T02:05:52;33.67;;;19.23;;
56381;SDS011;50261;51.150;4.470;2023-11-21T02:08:19;29.27;;;18.27;;
56381;SDS011;50261;51.150;4.470;2023-11-21T02:10:45;30.52;;;17.98;;
56381;SDS011;50261;51.150;4.470;2023-11-21T02:13:10;28.83;;;18.98;;
56381;SDS011;50261;51.150;4.470;2023-11-21T02:15:37;30.60;;;17.92;;
56381;SDS011;50261;51.150;4.470;2023-11-21T02:18:03;29.52;;;18.48;;
56381;SDS011;50261;51.150;4.470;2023-11-21T02:20:31;32.00;;;18.85;;
56381;SDS011;50261;51.150;4.470;2023-11-21T02:23:00;35.45;;;18.92;;
56381;SDS011;50261;51.150;4.470;2023-11-21T02:25:28;32.10;;;18.73;;
56381;SDS011;50261;51.150;4.470;2023-11-21T02:27:59;29.98;;;18.73;;
56381;SDS011;50261;51.150;4.470;2023-11-21T02:30:25;34.20;;;18.23;;
56381;SDS011;50261;51.150;4.470;2023-11-21T02:32:51;28.45;;;17.75;;
56381;SDS011;50261;51.150;4.470;2023-11-21T02:35:20;31.83;;;17.83;;
56381;SDS011;50261;51.150;4.470;2023-11-21T02:37:51;31.25;;;18.00;;
56381;SDS011;50261;51.150;4.470;2023-11-21T02:40:17;32.75;;;17.83;;
56381;SDS011;50261;51.150;4.470;2023-11-21T02:42:49;29.73;;;17.10;;
56381;SDS011;50261;51.150;4.470;2023-11-21T02:45:16;27.50;;;16.13;;
56381;SDS011;50261;51.150;4.470;2023-11-21T02:47:45;26.75;;;16.85;;
56381;SDS011;50261;51.150;4.470;2023-11-21T02:50:11;31.55;;;17.27;;
56381;SDS011;50261;51.150;4.470;2023-11-21T02:52:37;29.00;;;17.50;;
56381;SDS011;50261;51.150;4.470;2023-11-21T02:55:03;28.45;;;16.63;;
56381;SDS011;50261;51.150;4.470;2023-11-21T02:57:29;25.40;;;16.60;;
56381;SDS011;50261;51.150;4.470;2023-11-21T02:59:55;27.13;;;16.17;;
56381;SDS011;50261;51.150;4.470;2023-11-21T03:02:20;26.55;;;17.00;;
56381;SDS011;50261;51.150;4.470;2023-11-21T03:04:46;24.83;;;16.05;;
56381;SDS011;50261;51.150;4.470;2023-11-21T03:07:14;27.00;;;16.42;;
56381;SDS011;50261;51.150;4.470;2023-11-21T03:09:40;26.17;;;16.00;;
56381;SDS011;50261;51.150;4.470;2023-11-21T03:12:06;31.05;;;15.65;;
56381;SDS011;50261;51.150;4.470;2023-11-21T03:14:31;25.67;;;15.25;;
56381;SDS011;50261;51.150;4.470;2023-11-21T03:16:57;25.70;;;15.93;;
56381;SDS011;50261;51.150;4.470;2023-11-21T03:19:23;27.58;;;16.63;;
56381;SDS011;50261;51.150;4.470;2023-11-21T03:21:49;28.10;;;16.77;;
56381;SDS011;50261;51.150;4.470;2023-11-21T03:24:14;25.73;;;15.85;;
56381;SDS011;50261;51.150;4.470;2023-11-21T03:26:44;22.60;;;15.30;;
56381;SDS011;50261;51.150;4.470;2023-11-21T03:29:10;24.80;;;15.68;;
56381;SDS011;50261;51.150;4.470;2023-11-21T03:31:36;28.17;;;15.95;;
56381;SDS011;50261;51.150;4.470;2023-11-21T03:34:02;30.17;;;15.60;;
56381;SDS011;50261;51.150;4.470;2023-11-21T03:36:27;23.50;;;14.88;;
56381;SDS011;50261;51.150;4.470;2023-11-21T03:38:53;27.08;;;16.02;;
56381;SDS011;50261;51.150;4.470;2023-11-21T03:41:20;23.58;;;14.88;;
56381;SDS011;50261;51.150;4.470;2023-11-21T03:43:46;24.63;;;14.38;;
56381;SDS011;50261;51.150;4.470;2023-11-21T03:46:13;24.33;;;14.18;;
56381;SDS011;50261;51.150;4.470;2023-11-21T03:48:39;37.28;;;16.08;;
56381;SDS011;50261;51.150;4.470;2023-11-21T03:51:05;25.35;;;14.23;;
56381;SDS011;50261;51.150;4.470;2023-11-21T03:53:33;23.88;;;14.40;;
56381;SDS011;50261;51.150;4.470;2023-11-21T03:56:01;24.35;;;14.75;;
56381;SDS011;50261;51.150;4.470;2023-11-21T03:58:27;25.75;;;15.27;;
56381;SDS011;50261;51.150;4.470;2023-11-21T04:00:53;23.63;;;14.95;;
56381;SDS011;50261;51.150;4.470;2023-11-21T04:03:19;24.65;;;15.35;;
56381;SDS011;50261;51.150;4.470;2023-11-21T04:05:44;23.38;;;14.85;;
56381;SDS011;50261;51.150;4.470;2023-11-21T04:08:11;29.17;;;15.95;;
56381;SDS011;50261;51.150;4.470;2023-11-21T04:10:36;24.83;;;14.68;;
56381;SDS011;50261;51.150;4.470;2023-11-21T04:13:05;25.83;;;14.85;;
56381;SDS011;50261;51.150;4.470;2023-11-21T04:15:32;24.58;;;14.45;;
56381;SDS011;50261;51.150;4.470;2023-11-21T04:17:57;27.08;;;14.32;;
56381;SDS011;50261;51.150;4.470;2023-11-21T04:20:24;23.60;;;14.57;;
56381;SDS011;50261;51.150;4.470;2023-11-21T04:22:49;23.60;;;13.35;;
56381;SDS011;50261;51.150;4.470;2023-11-21T04:25:15;28.40;;;15.15;;
56381;SDS011;50261;51.150;4.470;2023-11-21T04:27:41;26.23;;;14.65;;
56381;SDS011;50261;51.150;4.470;2023-11-21T04:30:11;28.48;;;14.65;;
56381;SDS011;50261;51.150;4.470;2023-11-21T04:32:36;21.20;;;13.40;;
56381;SDS011;50261;51.150;4.470;2023-11-21T04:35:02;21.95;;;14.85;;
56381;SDS011;50261;51.150;4.470;2023-11-21T04:37:29;27.52;;;14.88;;
56381;SDS011;50261;51.150;4.470;2023-11-21T04:39:55;24.85;;;14.68;;
56381;SDS011;50261;51.150;4.470;2023-11-21T04:42:20;21.45;;;14.05;;
56381;SDS011;50261;51.150;4.470;2023-11-21T04:44:46;25.70;;;14.45;;
56381;SDS011;50261;51.150;4.470;2023-11-21T04:47:11;24.40;;;13.68;;
56381;SDS011;50261;51.150;4.470;2023-11-21T04:49:37;22.17;;;13.80;;
56381;SDS011;50261;51.150;4.470;2023-11-21T04:52:03;23.95;;;14.32;;
56381;SDS011;50261;51.150;4.470;2023-11-21T04:54:30;24.30;;;14.55;;
56381;SDS011;50261;51.150;4.470;2023-11-21T04:56:56;25.05;;;14.63;;
56381;SDS011;50261;51.150;4.470;2023-11-21T04:59:22;25.67;;;14.73;;
56381;SDS011;50261;51.150;4.470;2023-11-21T05:01:50;21.35;;;13.23;;
56381;SDS011;50261;51.150;4.470;2023-11-21T05:04:16;21.13;;;13.45;;
56381;SDS011;50261;51.150;4.470;2023-11-21T05:06:41;21.98;;;13.77;;
56381;SDS011;50261;51.150;4.470;2023-11-21T05:09:07;22.17;;;14.32;;
56381;SDS011;50261;51.150;4.470;2023-11-21T05:11:37;20.85;;;13.57;;
56381;SDS011;50261;51.150;4.470;2023-11-21T05:14:03;23.17;;;13.48;;
56381;SDS011;50261;51.150;4.470;2023-11-21T05:16:30;22.50;;;13.88;;
56381;SDS011;50261;51.150;4.470;2023-11-21T05:18:56;23.83;;;13.55;;
56381;SDS011;50261;51.150;4.470;2023-11-21T05:21:28;24.80;;;14.25;;
56381;SDS011;50261;51.150;4.470;2023-11-21T05:23:56;24.13;;;13.30;;
56381;SDS011;50261;51.150;4.470;2023-11-21T05:26:21;22.67;;;13.25;;
56381;SDS011;50261;51.150;4.470;2023-11-21T05:28:47;19.15;;;12.35;;
56381;SDS011;50261;51.150;4.470;2023-11-21T05:31:13;21.92;;;13.57;;
56381;SDS011;50261;51.150;4.470;2023-11-21T05:33:39;23.95;;;14.02;;
56381;SDS011;50261;51.150;4.470;2023-11-21T05:36:04;20.17;;;13.13;;
56381;SDS011;50261;51.150;4.470;2023-11-21T05:38:30;18.58;;;12.73;;
56381;SDS011;50261;51.150;4.470;2023-11-21T05:40:55;21.35;;;13.25;;
56381;SDS011;50261;51.150;4.470;2023-11-21T05:43:21;25.73;;;13.15;;
56381;SDS011;50261;51.150;4.470;2023-11-21T05:45:47;20.50;;;13.57;;
56381;SDS011;50261;51.150;4.470;2023-11-21T05:48:13;27.15;;;14.23;;
56381;SDS011;50261;51.150;4.470;2023-11-21T05:50:38;22.63;;;12.95;;
56381;SDS011;50261;51.150;4.470;2023-11-21T05:53:04;23.77;;;13.43;;
56381;SDS011;50261;51.150;4.470;2023-11-21T05:55:30;19.13;;;12.82;;
56381;SDS011;50261;51.150;4.470;2023-11-21T05:57:56;24.05;;;14.27;;
56381;SDS011;50261;51.150;4.470;2023-11-21T06:00:22;23.85;;;13.93;;
56381;SDS011;50261;51.150;4.470;2023-11-21T06:02:48;28.67;;;14.25;;
56381;SDS011;50261;51.150;4.470;2023-11-21T06:05:16;20.00;;;14.43;;
56381;SDS011;50261;51.150;4.470;2023-11-21T06:07:43;24.67;;;14.55;;
56381;SDS011;50261;51.150;4.470;2023-11-21T06:10:10;25.10;;;13.57;;
56381;SDS011;50261;51.150;4.470;2023-11-21T06:12:36;24.88;;;13.75;;
56381;SDS011;50261;51.150;4.470;2023-11-21T06:15:03;25.67;;;14.60;;
56381;SDS011;50261;51.150;4.470;2023-11-21T06:17:34;27.23;;;13.77;;
56381;SDS011;50261;51.150;4.470;2023-11-21T06:20:02;25.08;;;14.65;;
56381;SDS011;50261;51.150;4.470;2023-11-21T06:22:34;30.65;;;14.20;;
56381;SDS011;50261;51.150;4.470;2023-11-21T06:25:01;24.30;;;13.35;;
56381;SDS011;50261;51.150;4.470;2023-11-21T06:27:27;25.42;;;14.48;;
56381;SDS011;50261;51.150;4.470;2023-11-21T06:29:54;25.85;;;14.23;;
56381;SDS011;50261;51.150;4.470;2023-11-21T06:32:20;32.15;;;14.70;;
56381;SDS011;50261;51.150;4.470;2023-11-21T06:34:48;24.52;;;14.65;;
56381;SDS011;50261;51.150;4.470;2023-11-21T06:37:14;27.80;;;14.52;;
56381;SDS011;50261;51.150;4.470;2023-11-21T06:39:40;24.75;;;14.55;;
56381;SDS011;50261;51.150;4.470;2023-11-21T06:42:06;25.10;;;14.55;;
56381;SDS011;50261;51.150;4.470;2023-11-21T06:44:32;27.85;;;15.10;;
56381;SDS011;50261;51.150;4.470;2023-11-21T06:46:59;24.95;;;15.30;;
56381;SDS011;50261;51.150;4.470;2023-11-21T06:49:24;28.02;;;15.25;;
56381;SDS011;50261;51.150;4.470;2023-11-21T06:51:51;25.17;;;14.02;;
56381;SDS011;50261;51.150;4.470;2023-11-21T06:54:16;25.30;;;15.15;;
56381;SDS011;50261;51.150;4.470;2023-11-21T06:56:42;25.08;;;14.57;;
56381;SDS011;50261;51.150;4.470;2023-11-21T06:59:07;27.77;;;14.77;;
56381;SDS011;50261;51.150;4.470;2023-11-21T07:01:34;28.30;;;15.45;;
56381;SDS011;50261;51.150;4.470;2023-11-21T07:04:04;24.58;;;15.13;;
56381;SDS011;50261;51.150;4.470;2023-11-21T07:06:30;30.77;;;14.95;;
56381;SDS011;50261;51.150;4.470;2023-11-21T07:08:56;29.52;;;15.38;;
56381;SDS011;50261;51.150;4.470;2023-11-21T07:11:22;33.03;;;16.45;;
56381;SDS011;50261;51.150;4.470;2023-11-21T07:13:47;27.75;;;15.73;;
56381;SDS011;50261;51.150;4.470;2023-11-21T07:16:13;29.30;;;15.52;;
56381;SDS011;50261;51.150;4.470;2023-11-21T07:18:40;36.10;;;16.17;;
56381;SDS011;50261;51.150;4.470;2023-11-21T07:21:05;28.98;;;16.30;;
56381;SDS011;50261;51.150;4.470;2023-11-21T07:23:31;30.38;;;15.07;;
56381;SDS011;50261;51.150;4.470;2023-11-21T07:25:56;32.95;;;16.33;;
56381;SDS011;50261;51.150;4.470;2023-11-21T07:28:23;31.45;;;16.27;;
56381;SDS011;50261;51.150;4.470;2023-11-21T07:30:49;31.63;;;16.20;;
56381;SDS011;50261;51.150;4.470;2023-11-21T07:33:14;34.05;;;16.95;;
56381;SDS011;50261;51.150;4.470;2023-11-21T07:35:40;28.35;;;16.08;;
56381;SDS011;50261;51.150;4.470;2023-11-21T07:38:05;30.95;;;16.45;;
56381;SDS011;50261;51.150;4.470;2023-11-21T07:40:30;29.42;;;15.63;;
56381;SDS011;50261;51.150;4.470;2023-11-21T07:42:56;30.98;;;16.88;;
56381;SDS011;50261;51.150;4.470;2023-11-21T07:45:23;31.23;;;16.70;;
56381;SDS011;50261;51.150;4.470;2023-11-21T07:47:48;29.95;;;16.17;;
56381;SDS011;50261;51.150;4.470;2023-11-21T07:50:13;28.40;;;16.77;;
56381;SDS011;50261;51.150;4.470;2023-11-21T07:52:39;28.20;;;15.55;;
56381;SDS011;50261;51.150;4.470;2023-11-21T07:55:05;31.63;;;17.38;;
56381;SDS011;50261;51.150;4.470;2023-11-21T07:57:30;32.90;;;17.30;;
56381;SDS011;50261;51.150;4.470;2023-11-21T07:59:55;33.22;;;18.13;;
56381;SDS011;50261;51.150;4.470;2023-11-21T08:02:21;38.08;;;18.05;;
56381;SDS011;50261;51.150;4.470;2023-11-21T08:04:46;34.65;;;18.02;;
56381;SDS011;50261;51.150;4.470;2023-11-21T08:07:15;41.75;;;17.60;;
56381;SDS011;50261;51.150;4.470;2023-11-21T08:09:40;40.63;;;19.08;;
56381;SDS011;50261;51.150;4.470;2023-11-21T08:12:06;37.30;;;17.65;;
56381;SDS011;50261;51.150;4.470;2023-11-21T08:14:32;38.80;;;17.70;;
56381;SDS011;50261;51.150;4.470;2023-11-21T08:16:58;39.33;;;18.73;;
56381;SDS011;50261;51.150;4.470;2023-11-21T08:19:24;29.55;;;17.25;;
56381;SDS011;50261;51.150;4.470;2023-11-21T08:21:52;32.70;;;17.08;;
56381;SDS011;50261;51.150;4.470;2023-11-21T08:24:20;34.95;;;16.40;;
56381;SDS011;50261;51.150;4.470;2023-11-21T08:26:45;32.30;;;15.93;;
56381;SDS011;50261;51.150;4.470;2023-11-21T08:29:10;36.05;;;16.73;;
56381;SDS011;50261;51.150;4.470;2023-11-21T08:31:36;32.78;;;16.90;;
56381;SDS011;50261;51.150;4.470;2023-11-21T08:34:03;31.23;;;16.20;;
56381;SDS011;50261;51.150;4.470;2023-11-21T08:36:31;33.22;;;16.48;;
56381;SDS011;50261;51.150;4.470;2023-11-21T08:38:56;36.33;;;15.45;;
56381;SDS011;50261;51.150;4.470;2023-11-21T08:41:22;30.90;;;15.15;;
56381;SDS011;50261;51.150;4.470;2023-11-21T08:43:48;35.50;;;16.20;;
56381;SDS011;50261;51.150;4.470;2023-11-21T08:46:14;31.52;;;15.65;;
56381;SDS011;50261;51.150;4.470;2023-11-21T08:48:40;33.90;;;16.88;;
56381;SDS011;50261;51.150;4.470;2023-11-21T08:51:06;30.40;;;15.38;;
56381;SDS011;50261;51.150;4.470;2023-11-21T08:53:31;32.67;;;15.65;;
56381;SDS011;50261;51.150;4.470;2023-11-21T08:55:58;34.03;;;15.60;;
56381;SDS011;50261;51.150;4.470;2023-11-21T08:58:23;28.50;;;15.63;;
56381;SDS011;50261;51.150;4.470;2023-11-21T09:00:49;30.70;;;14.60;;
56381;SDS011;50261;51.150;4.470;2023-11-21T09:03:14;29.75;;;15.05;;
56381;SDS011;50261;51.150;4.470;2023-11-21T09:05:40;27.65;;;14.73;;
56381;SDS011;50261;51.150;4.470;2023-11-21T09:08:05;31.73;;;15.65;;
56381;SDS011;50261;51.150;4.470;2023-11-21T09:10:32;29.17;;;14.77;;
56381;SDS011;50261;51.150;4.470;2023-11-21T09:12:58;25.77;;;13.98;;
56381;SDS011;50261;51.150;4.470;2023-11-21T09:15:24;26.63;;;14.75;;
56381;SDS011;50261;51.150;4.470;2023-11-21T09:17:50;27.63;;;14.52;;
56381;SDS011;50261;51.150;4.470;2023-11-21T09:20:15;22.75;;;13.02;;
56381;SDS011;50261;51.150;4.470;2023-11-21T09:22:41;26.02;;;13.80;;
56381;SDS011;50261;51.150;4.470;2023-11-21T09:25:06;22.63;;;13.60;;
56381;SDS011;50261;51.150;4.470;2023-11-21T09:27:33;20.42;;;12.15;;
56381;SDS011;50261;51.150;4.470;2023-11-21T09:30:01;20.50;;;12.35;;
56381;SDS011;50261;51.150;4.470;2023-11-21T09:32:28;19.05;;;12.23;;
56381;SDS011;50261;51.150;4.470;2023-11-21T09:34:55;22.55;;;13.48;;
56381;SDS011;50261;51.150;4.470;2023-11-21T09:37:23;19.70;;;12.05;;
56381;SDS011;50261;51.150;4.470;2023-11-21T09:39:49;21.05;;;12.15;;
56381;SDS011;50261;51.150;4.470;2023-11-21T09:42:30;20.80;;;11.52;;
56381;SDS011;50261;51.150;4.470;2023-11-21T09:44:59;17.58;;;11.02;;
56381;SDS011;50261;51.150;4.470;2023-11-21T09:47:26;18.10;;;10.70;;
56381;SDS011;50261;51.150;4.470;2023-11-21T09:49:53;18.90;;;10.82;;
56381;SDS011;50261;51.150;4.470;2023-11-21T09:52:25;17.23;;;10.30;;
56381;SDS011;50261;51.150;4.470;2023-11-21T09:54:52;13.05;;;9.05;;
56381;SDS011;50261;51.150;4.470;2023-11-21T09:57:21;12.88;;;8.75;;
56381;SDS011;50261;51.150;4.470;2023-11-21T09:59:48;10.88;;;7.07;;
56381;SDS011;50261;51.150;4.470;2023-11-21T10:02:16;11.80;;;7.43;;
56381;SDS011;50261;51.150;4.470;2023-11-21T10:04:44;9.18;;;6.38;;
56381;SDS011;50261;51.150;4.470;2023-11-21T10:07:10;11.80;;;7.43;;
56381;SDS011;50261;51.150;4.470;2023-11-21T10:09:39;12.90;;;7.18;;
56381;SDS011;50261;51.150;4.470;2023-11-21T10:12:04;12.88;;;6.88;;
56381;SDS011;50261;51.150;4.470;2023-11-21T10:14:35;13.48;;;7.20;;
56381;SDS011;50261;51.150;4.470;2023-11-21T10:17:02;10.13;;;6.72;;
56381;SDS011;50261;51.150;4.470;2023-11-21T10:19:28;13.25;;;6.93;;
56381;SDS011;50261;51.150;4.470;2023-11-21T10:21:54;11.93;;;6.50;;
56381;SDS011;50261;51.150;4.470;2023-11-21T10:24:19;10.98;;;6.53;;
56381;SDS011;50261;51.150;4.470;2023-11-21T10:26:45;13.48;;;6.32;;
56381;SDS011;50261;51.150;4.470;2023-11-21T10:29:14;11.10;;;6.18;;
56381;SDS011;50261;51.150;4.470;2023-11-21T10:31:42;11.27;;;5.93;;
56381;SDS011;50261;51.150;4.470;2023-11-21T10:34:17;10.35;;;5.57;;
56381;SDS011;50261;51.150;4.470;2023-11-21T10:36:43;9.20;;;5.78;;
56381;SDS011;50261;51.150;4.470;2023-11-21T10:39:08;9.60;;;5.50;;
56381;SDS011;50261;51.150;4.470;2023-11-21T10:41:36;10.40;;;5.03;;
56381;SDS011;50261;51.150;4.470;2023-11-21T10:44:03;7.10;;;4.55;;
56381;SDS011;50261;51.150;4.470;2023-11-21T10:46:36;10.65;;;4.88;;
56381;SDS011;50261;51.150;4.470;2023-11-21T10:49:03;7.40;;;4.68;;
56381;SDS011;50261;51.150;4.470;2023-11-21T10:51:29;6.85;;;4.45;;
56381;SDS011;50261;51.150;4.470;2023-11-21T10:53:54;8.00;;;4.35;;
56381;SDS011;50261;51.150;4.470;2023-11-21T10:56:20;8.48;;;4.55;;
56381;SDS011;50261;51.150;4.470;2023-11-21T10:58:51;7.72;;;3.88;;
56381;SDS011;50261;51.150;4.470;2023-11-21T11:01:18;7.35;;;4.22;;
56381;SDS011;50261;51.150;4.470;2023-11-21T11:03:44;6.38;;;3.90;;
56381;SDS011;50261;51.150;4.470;2023-11-21T11:06:10;8.05;;;4.45;;
56381;SDS011;50261;51.150;4.470;2023-11-21T11:08:38;7.97;;;4.00;;
56381;SDS011;50261;51.150;4.470;2023-11-21T11:11:08;4.63;;;3.50;;
56381;SDS011;50261;51.150;4.470;2023-11-21T11:13:35;6.38;;;3.42;;
56381;SDS011;50261;51.150;4.470;2023-11-21T11:16:02;4.68;;;2.53;;
56381;SDS011;50261;51.150;4.470;2023-11-21T11:18:29;5.60;;;2.90;;
56381;SDS011;50261;51.150;4.470;2023-11-21T11:20:54;5.85;;;2.80;;
56381;SDS011;50261;51.150;4.470;2023-11-21T11:28:42;4.00;;;2.72;;
56381;SDS011;50261;51.150;4.470;2023-11-21T11:33:58;4.18;;;2.47;;
56381;SDS011;50261;51.150;4.470;2023-11-21T11:36:31;4.45;;;2.35;;
56381;SDS011;50261;51.150;4.470;2023-11-21T11:38:59;7.15;;;2.03;;
56381;SDS011;50261;51.150;4.470;2023-11-21T11:41:27;3.90;;;2.20;;
56381;SDS011;50261;51.150;4.470;2023-11-21T11:43:54;5.25;;;2.20;;
56381;SDS011;50261;51.150;4.470;2023-11-21T11:46:20;4.22;;;2.13;;
56381;SDS011;50261;51.150;4.470;2023-11-21T11:48:47;3.03;;;1.73;;
56381;SDS011;50261;51.150;4.470;2023-11-21T11:51:13;4.13;;;2.30;;
56381;SDS011;50261;51.150;4.470;2023-11-21T11:53:40;1.80;;;1.40;;
56381;SDS011;50261;51.150;4.470;2023-11-21T11:56:19;3.03;;;1.90;;
56381;SDS011;50261;51.150;4.470;2023-11-21T11:58:48;2.83;;;1.90;;
56381;SDS011;50261;51.150;4.470;2023-11-21T12:01:13;2.60;;;1.88;;
56381;SDS011;50261;51.150;4.470;2023-11-21T12:03:41;5.75;;;2.60;;
56381;SDS011;50261;51.150;4.470;2023-11-21T12:06:07;3.28;;;2.50;;
56381;SDS011;50261;51.150;4.470;2023-11-21T12:08:34;5.25;;;2.35;;
56381;SDS011;50261;51.150;4.470;2023-11-21T12:11:00;4.68;;;3.00;;
56381;SDS011;50261;51.150;4.470;2023-11-21T12:13:26;4.65;;;2.92;;
56381;SDS011;50261;51.150;4.470;2023-11-21T12:15:53;4.72;;;2.90;;
56381;SDS011;50261;51.150;4.470;2023-11-21T12:18:20;5.20;;;2.60;;
56381;SDS011;50261;51.150;4.470;2023-11-21T12:20:46;5.25;;;3.08;;
56381;SDS011;50261;51.150;4.470;2023-11-21T12:23:14;5.53;;;2.53;;
56381;SDS011;50261;51.150;4.470;2023-11-21T12:25:41;5.20;;;2.67;;
56381;SDS011;50261;51.150;4.470;2023-11-21T12:28:07;5.85;;;2.83;;
56381;SDS011;50261;51.150;4.470;2023-11-21T12:30:35;10.00;;;3.30;;
56381;SDS011;50261;51.150;4.470;2023-11-21T12:33:03;4.90;;;2.38;;
56381;SDS011;50261;51.150;4.470;2023-11-21T12:35:30;6.30;;;2.60;;
56381;SDS011;50261;51.150;4.470;2023-11-21T12:37:59;4.70;;;2.05;;
56381;SDS011;50261;51.150;4.470;2023-11-21T12:40:24;4.53;;;2.60;;
56381;SDS011;50261;51.150;4.470;2023-11-21T12:42:54;5.53;;;2.35;;
56381;SDS011;50261;51.150;4.470;2023-11-21T12:45:20;3.70;;;2.10;;
56381;SDS011;50261;51.150;4.470;2023-11-21T12:47:47;3.85;;;2.10;;
56381;SDS011;50261;51.150;4.470;2023-11-21T12:50:13;5.28;;;2.60;;
56381;SDS011;50261;51.150;4.470;2023-11-21T12:52:45;4.43;;;2.00;;
56381;SDS011;50261;51.150;4.470;2023-11-21T12:55:15;3.25;;;1.83;;
56381;SDS011;50261;51.150;4.470;2023-11-21T12:57:41;3.15;;;1.75;;
56381;SDS011;50261;51.150;4.470;2023-11-21T13:00:08;3.03;;;1.55;;
56381;SDS011;50261;51.150;4.470;2023-11-21T13:02:41;2.83;;;1.83;;
56381;SDS011;50261;51.150;4.470;2023-11-21T13:05:08;2.83;;;1.85;;
56381;SDS011;50261;51.150;4.470;2023-11-21T13:07:43;4.03;;;1.77;;
56381;SDS011;50261;51.150;4.470;2023-11-21T13:10:12;3.30;;;1.95;;
56381;SDS011;50261;51.150;4.470;2023-11-21T13:12:42;4.15;;;1.90;;
56381;SDS011;50261;51.150;4.470;2023-11-21T13:15:08;3.25;;;1.77;;
56381;SDS011;50261;51.150;4.470;2023-11-21T13:17:33;3.83;;;2.38;;
56381;SDS011;50261;51.150;4.470;2023-11-21T13:19:59;2.58;;;2.13;;
56381;SDS011;50261;51.150;4.470;2023-11-21T13:22:28;3.65;;;2.20;;
56381;SDS011;50261;51.150;4.470;2023-11-21T13:24:53;3.03;;;1.95;;
56381;SDS011;50261;51.150;4.470;2023-11-21T13:27:19;3.15;;;2.00;;
56381;SDS011;50261;51.150;4.470;2023-11-21T13:29:44;3.00;;;1.85;;
56381;SDS011;50261;51.150;4.470;2023-11-21T13:32:10;5.13;;;2.10;;
56381;SDS011;50261;51.150;4.470;2023-11-21T13:34:37;5.50;;;1.90;;
56381;SDS011;50261;51.150;4.470;2023-11-21T13:37:02;3.55;;;2.10;;
56381;SDS011;50261;51.150;4.470;2023-11-21T13:39:29;2.97;;;1.95;;
56381;SDS011;50261;51.150;4.470;2023-11-21T13:41:57;3.78;;;2.10;;
56381;SDS011;50261;51.150;4.470;2023-11-21T13:44:23;3.22;;;1.88;;
56381;SDS011;50261;51.150;4.470;2023-11-21T13:46:52;3.88;;;1.80;;
56381;SDS011;50261;51.150;4.470;2023-11-21T13:49:18;3.17;;;1.80;;
56381;SDS011;50261;51.150;4.470;2023-11-21T13:51:46;3.63;;;2.00;;
56381;SDS011;50261;51.150;4.470;2023-11-21T13:54:16;3.47;;;2.03;;
56381;SDS011;50261;51.150;4.470;2023-11-21T13:56:41;2.42;;;1.90;;
56381;SDS011;50261;51.150;4.470;2023-11-21T13:59:09;5.15;;;2.03;;
56381;SDS011;50261;51.150;4.470;2023-11-21T14:01:50;4.20;;;2.20;;
56381;SDS011;50261;51.150;4.470;2023-11-21T14:06:56;3.20;;;2.08;;
56381;SDS011;50261;51.150;4.470;2023-11-21T14:09:22;4.03;;;2.40;;
56381;SDS011;50261;51.150;4.470;2023-11-21T14:11:51;4.85;;;2.17;;
56381;SDS011;50261;51.150;4.470;2023-11-21T14:14:18;3.75;;;2.45;;
56381;SDS011;50261;51.150;4.470;2023-11-21T14:16:44;3.60;;;2.03;;
56381;SDS011;50261;51.150;4.470;2023-11-21T14:19:09;4.78;;;2.40;;
56381;SDS011;50261;51.150;4.470;2023-11-21T14:21:44;4.32;;;2.50;;
56381;SDS011;50261;51.150;4.470;2023-11-21T14:24:09;4.90;;;2.60;;
56381;SDS011;50261;51.150;4.470;2023-11-21T14:26:35;3.65;;;2.60;;
56381;SDS011;50261;51.150;4.470;2023-11-21T14:29:00;4.75;;;2.60;;
56381;SDS011;50261;51.150;4.470;2023-11-21T14:31:26;4.90;;;2.35;;
56381;SDS011;50261;51.150;4.470;2023-11-21T14:33:54;4.65;;;2.70;;
56381;SDS011;50261;51.150;4.470;2023-11-21T14:36:19;5.65;;;2.47;;